Search for airport 
image banner adimage banner ad
image banner ad

TFFS - Les Saintes Terre De Haut

Located in Terre De Haut, Guadeloupe

ICAO - TFFS, IATA - LSS

Data provided by Airmate  

General information

Coordinates: N15°51'52" W61°34'50"
Elevation is 42 feet MSL.
Magnetic variation is -14.56° East
Rated:
View ratings: [VIEW]


View others Airports in (unassigned)

Operational data

Open for public use
Current time UTC:
Current local time:
Weather at : TFFR - Pointe A Pitre Le Raizet ( 45 km )
METAR: TFFR 250200Z AUTO 08002KT 9000 OVC062 25/23 Q1016 TEMPO 4000 SHRA SCT018TCU BKN025
TAF: TAF TFFR 242300Z 2500/2524 VRB02KT 9999 SCT025 SCT035 PROB30 TEMPO 2500/2509 4000 SHRA SCT018TCU BKN025 BECMG 2511/2514 09010KT
View NOTAMs / SUP AIP / TFR affecting this airport [VIEW]
Communications frequencies: [VIEW]

Runways:

RWY identifierQFULength (ft)Width (ft)SurfaceLDA (ft)
0974°190349CONC1903
27254°190349CONC1903

Airport contact information

Address: Terre De Haut Guadeloupe

Satellite view of TFFS